Time;durP1;ratioP1;P1;durP2;ratioP2;P2;SDS_P1;SDS_P2;PMS_P1;PMS_P2;Temp;Humidity;BMP_temperature;BMP_pressure;BME280_temperature;BME280_humidity;BME280_pressure;Samples;Min_cycle;Max_cycle;Signal;HPM_P1;HPM_P2
2022/08/15 00:01:13;;;;;;;6.38;4.47;;;27.40;60.10;;;;;;4477089;32;20092;-67
2022/08/15 00:03:45;;;;;;;4.63;3.97;;;27.40;60.10;;;;;;4477330;32;20077;-68
2022/08/15 00:06:16;;;;;;;5.07;4.00;;;27.40;60.10;;;;;;4477179;32;20511;-67
2022/08/15 00:08:47;;;;;;;4.65;3.90;;;27.40;60.10;;;;;;4477166;32;20073;-68
2022/08/15 00:11:33;;;;;;;4.85;4.20;;;27.40;60.10;;;;;;4477009;32;20070;-67
2022/08/15 00:14:06;;;;;;;4.30;3.90;;;27.40;60.10;;;;;;4477066;32;20160;-68
2022/08/15 00:16:36;;;;;;;4.47;4.07;;;27.40;60.10;;;;;;4477134;32;20080;-67
2022/08/15 00:19:10;;;;;;;5.22;4.22;;;27.40;60.00;;;;;;4476415;32;20235;-67
2022/08/15 00:21:44;;;;;;;4.35;3.95;;;27.40;60.10;;;;;;4477203;32;20106;-67
2022/08/15 00:24:15;;;;;;;4.70;4.07;;;27.40;60.00;;;;;;4476920;32;20124;-68
2022/08/15 00:26:48;;;;;;;6.28;4.20;;;27.40;60.00;;;;;;4477033;32;20092;-68
2022/08/15 00:29:16;;;;;;;4.37;3.70;;;27.40;60.00;;;;;;4476779;32;20073;-67
2022/08/15 00:31:43;;;;;;;7.20;4.35;;;27.40;60.00;;;;;;4476462;32;20081;-67
2022/08/15 00:34:10;;;;;;;4.32;4.00;;;27.40;60.00;;;;;;4476984;32;20093;-67
2022/08/15 00:36:36;;;;;;;4.40;3.97;;;27.30;59.90;;;;;;4476545;32;20077;-68
2022/08/15 00:39:04;;;;;;;4.22;3.78;;;27.30;59.90;;;;;;4476806;32;20142;-67
2022/08/15 00:41:39;;;;;;;4.15;3.75;;;27.30;59.90;;;;;;4476226;32;20081;-67
2022/08/15 00:44:34;;;;;;;5.50;3.95;;;27.30;59.80;;;;;;4476371;32;20182;-68
2022/08/15 00:47:08;;;;;;;5.80;4.25;;;27.30;59.80;;;;;;4468278;32;20065;-68
2022/08/15 00:49:35;;;;;;;4.03;3.67;;;27.30;59.80;;;;;;4462500;32;20073;-67
2022/08/15 00:52:11;;;;;;;4.75;4.35;;;27.30;59.90;;;;;;4476429;32;20066;-68
2022/08/15 00:54:46;;;;;;;5.10;3.95;;;27.30;59.80;;;;;;4476503;32;20163;-68
2022/08/15 00:57:21;;;;;;;4.65;4.18;;;27.30;59.80;;;;;;4476311;32;20521;-67
2022/08/15 01:00:01;;;;;;;4.93;4.00;;;27.30;59.80;;;;;;4476414;32;20093;-67
2022/08/15 01:02:32;;;;;;;4.47;3.97;;;27.30;59.70;;;;;;4476652;32;20214;-68
2022/08/15 01:04:59;;;;;;;6.30;4.20;;;27.30;59.80;;;;;;4462061;32;20265;-67
2022/08/15 01:07:26;;;;;;;4.40;4.00;;;27.30;59.80;;;;;;4476490;32;20097;-68
2022/08/15 01:09:52;;;;;;;4.20;3.67;;;27.30;59.80;;;;;;4476168;32;20186;-67
2022/08/15 01:12:22;;;;;;;4.15;3.75;;;27.30;59.80;;;;;;4476427;32;20406;-67
2022/08/15 01:14:52;;;;;;;4.85;3.85;;;27.30;59.70;;;;;;4476376;32;20179;-67
2022/08/15 01:17:19;;;;;;;4.50;4.10;;;27.30;59.70;;;;;;4462155;32;20061;-67
2022/08/15 01:19:52;;;;;;;4.63;4.20;;;27.30;59.70;;;;;;4475854;32;20129;-68
2022/08/15 01:22:27;;;;;;;4.55;4.00;;;27.30;59.70;;;;;;4476694;32;20073;-68
2022/08/15 01:25:19;;;;;;;5.43;3.60;;;27.30;59.70;;;;;;4475626;32;20175;-67
2022/08/15 01:27:52;;;;;;;4.50;3.80;;;27.30;59.70;;;;;;4472531;32;20085;-68
2022/08/15 01:30:22;;;;;;;4.55;3.90;;;27.30;59.60;;;;;;4461704;32;20074;-67
2022/08/15 01:32:48;;;;;;;4.10;3.70;;;27.30;59.70;;;;;;4478675;32;20073;-67
2022/08/15 01:35:14;;;;;;;4.13;3.72;;;27.30;59.70;;;;;;4478996;32;20088;-67
2022/08/15 01:37:41;;;;;;;5.00;4.00;;;27.20;59.50;;;;;;4479155;32;20226;-68
2022/08/15 01:40:43;;;;;;;4.75;4.35;;;27.30;59.60;;;;;;4478893;32;20077;-70
2022/08/15 01:43:11;;;;;;;4.57;4.18;;;27.20;59.50;;;;;;4466159;32;20096;-68
2022/08/15 01:45:41;;;;;;;5.45;4.03;;;27.20;59.50;;;;;;4479486;32;20491;-68
2022/08/15 01:48:30;;;;;;;4.65;4.22;;;27.20;59.50;;;;;;4479221;32;20422;-67
2022/08/15 01:51:02;;;;;;;4.55;4.15;;;27.20;59.50;;;;;;4479400;32;20117;-67
2022/08/15 01:53:36;;;;;;;4.43;4.03;;;27.20;60.40;;;;;;4478722;32;20092;-67
2022/08/15 01:56:13;;;;;;;4.47;4.07;;;27.20;59.50;;;;;;4479373;32;20089;-68
2022/08/15 01:58:42;;;;;;;4.05;3.70;;;27.20;59.40;;;;;;4479203;32;20532;-68
2022/08/15 02:01:12;;;;;;;4.60;4.20;;;27.20;59.40;;;;;;4478937;32;20530;-67
2022/08/15 02:03:44;;;;;;;4.20;3.80;;;27.20;59.50;;;;;;4478872;32;20209;-68
2022/08/15 02:06:17;;;;;;;4.43;4.03;;;27.20;59.50;;;;;;4464858;32;20089;-67
2022/08/15 02:08:44;;;;;;;4.90;4.50;;;27.20;59.40;;;;;;4478851;32;20073;-68
2022/08/15 02:11:14;;;;;;;5.97;3.72;;;27.20;59.40;;;;;;4464552;32;20084;-68
2022/08/15 02:13:40;;;;;;;5.00;4.60;;;27.20;59.50;;;;;;4478805;32;20065;-68
2022/08/15 02:16:06;;;;;;;4.40;4.00;;;27.20;59.40;;;;;;4478933;32;20129;-67
2022/08/15 02:18:32;;;;;;;4.28;3.85;;;27.20;59.40;;;;;;4478841;32;20182;-68
2022/08/15 02:20:58;;;;;;;4.35;3.95;;;27.20;59.40;;;;;;4464532;32;20081;-67
2022/08/15 02:23:25;;;;;;;5.88;4.35;;;27.20;59.50;;;;;;4478838;32;20382;-67
2022/08/15 02:25:53;;;;;;;4.22;3.83;;;27.20;59.40;;;;;;4478817;32;20099;-68
2022/08/15 02:28:19;;;;;;;5.82;4.18;;;27.20;59.40;;;;;;4478599;32;20081;-68
2022/08/15 02:30:46;;;;;;;4.72;4.25;;;27.20;59.40;;;;;;4478515;32;20092;-67
2022/08/15 02:33:12;;;;;;;3.95;3.63;;;27.20;59.40;;;;;;4478406;32;20186;-67
2022/08/15 02:35:38;;;;;;;4.75;4.35;;;27.20;59.40;;;;;;4478656;32;20219;-67
2022/08/15 02:38:05;;;;;;;4.82;4.43;;;27.20;59.40;;;;;;4478606;32;20073;-67
2022/08/15 02:40:33;;;;;;;5.55;4.10;;;27.20;59.40;;;;;;4478498;32;20096;-67
2022/08/15 02:43:05;;;;;;;4.45;4.05;;;27.20;59.40;;;;;;4478448;32;20491;-67
2022/08/15 02:45:38;;;;;;;4.07;3.78;;;27.20;59.50;;;;;;4477943;32;20085;-67
2022/08/15 02:48:06;;;;;;;4.55;4.13;;;27.20;59.40;;;;;;4464081;32;20215;-67
2022/08/15 02:50:35;;;;;;;4.00;3.65;;;27.10;60.20;;;;;;4478176;32;20141;-67
2022/08/15 02:53:12;;;;;;;4.07;3.67;;;27.10;59.40;;;;;;4478163;32;20077;-67
2022/08/15 02:55:41;;;;;;;4.30;3.90;;;27.10;59.40;;;;;;4478638;32;20170;-68
2022/08/15 02:58:09;;;;;;;4.00;3.70;;;27.10;59.30;;;;;;4478256;32;20077;-67
2022/08/15 03:00:36;;;;;;;4.32;3.92;;;27.10;59.40;;;;;;4478307;32;20202;-67
2022/08/15 03:03:06;;;;;;;4.38;4.00;;;27.10;59.40;;;;;;4478021;32;20069;-67
2022/08/15 03:05:34;;;;;;;4.15;3.85;;;27.10;59.40;;;;;;4478026;32;20503;-68
2022/08/15 03:08:00;;;;;;;4.40;4.00;;;27.10;59.40;;;;;;4477934;32;20096;-68
2022/08/15 03:10:26;;;;;;;5.40;3.97;;;27.10;59.40;;;;;;4478136;32;20561;-68
2022/08/15 03:12:57;;;;;;;4.45;4.05;;;27.10;59.40;;;;;;4463851;32;20150;-68
2022/08/15 03:15:25;;;;;;;4.30;3.90;;;27.10;59.40;;;;;;4463812;32;20077;-68
2022/08/15 03:17:52;;;;;;;4.60;4.20;;;27.10;59.40;;;;;;4478022;32;20057;-68
2022/08/15 03:20:19;;;;;;;4.90;4.38;;;27.10;59.40;;;;;;4478066;32;20088;-68
2022/08/15 03:22:48;;;;;;;4.38;3.92;;;27.10;59.40;;;;;;4477789;32;20111;-66
2022/08/15 03:25:17;;;;;;;4.32;3.90;;;27.10;59.40;;;;;;4477684;32;20082;-66
2022/08/15 03:27:44;;;;;;;4.55;3.88;;;27.10;59.40;;;;;;4477681;32;20092;-67
2022/08/15 03:30:12;;;;;;;4.28;3.90;;;27.00;59.30;;;;;;4477546;32;20152;-67
2022/08/15 03:32:55;;;;;;;3.92;3.63;;;27.10;59.40;;;;;;4477541;32;20215;-68
2022/08/15 03:35:23;;;;;;;4.63;4.22;;;27.10;59.40;;;;;;4477592;32;20081;-68
2022/08/15 03:37:49;;;;;;;4.78;4.35;;;27.00;59.30;;;;;;4477410;32;20186;-68
2022/08/15 03:40:16;;;;;;;4.38;3.97;;;27.00;59.30;;;;;;4478018;32;20203;-73
2022/08/15 03:42:53;;;;;;;4.43;4.03;;;27.10;59.40;;;;;;4477361;32;20108;-68
2022/08/15 03:45:20;;;;;;;4.63;4.22;;;27.10;59.40;;;;;;4476967;32;20081;-67
2022/08/15 03:47:46;;;;;;;4.22;3.90;;;27.10;60.20;;;;;;4477318;32;20206;-68
2022/08/15 03:50:12;;;;;;;4.40;3.95;;;27.00;59.30;;;;;;4477375;32;20124;-67
2022/08/15 03:52:56;;;;;;;3.97;3.45;;;27.00;59.30;;;;;;4477282;32;20510;-67
2022/08/15 03:55:24;;;;;;;5.25;4.30;;;27.00;59.30;;;;;;4477127;32;20167;-67
2022/08/15 03:57:51;;;;;;;4.35;3.95;;;27.00;59.30;;;;;;4477129;32;20240;-67
2022/08/15 04:00:20;;;;;;;4.13;3.72;;;27.00;59.30;;;;;;4477438;32;20167;-67
2022/08/15 04:02:45;;;;;;;4.25;3.92;;;27.00;59.30;;;;;;4477315;32;20093;-67
2022/08/15 04:05:11;;;;;;;4.50;4.10;;;27.00;59.30;;;;;;4477077;32;20499;-67
2022/08/15 04:07:38;;;;;;;5.07;4.18;;;27.00;59.30;;;;;;4462769;32;20135;-68
2022/08/15 04:10:07;;;;;;;4.13;3.83;;;27.00;59.30;;;;;;4477013;32;20073;-67
2022/08/15 04:12:35;;;;;;;4.43;4.03;;;27.00;59.30;;;;;;4476621;32;20065;-67
2022/08/15 04:15:04;;;;;;;4.18;3.80;;;27.00;59.30;;;;;;4462893;32;20485;-68
2022/08/15 04:17:30;;;;;;;3.92;3.63;;;27.00;59.30;;;;;;4476810;32;20095;-67
2022/08/15 04:19:57;;;;;;;4.60;4.20;;;27.00;59.60;;;;;;4476903;32;20170;-67
2022/08/15 04:22:35;;;;;;;4.18;3.78;;;27.00;59.30;;;;;;4476838;32;20525;-67
2022/08/15 04:25:07;;;;;;;4.20;3.80;;;27.00;59.30;;;;;;4476917;32;20069;-67
2022/08/15 04:27:33;;;;;;;4.47;4.07;;;27.00;59.30;;;;;;4477137;32;20089;-67
2022/08/15 04:29:58;;;;;;;4.50;3.60;;;27.00;59.30;;;;;;4476728;32;20473;-68
2022/08/15 04:32:26;;;;;;;4.72;4.28;;;26.90;59.20;;;;;;4476662;32;20069;-67
2022/08/15 04:34:54;;;;;;;5.90;3.97;;;27.00;59.30;;;;;;4476916;32;20475;-68
2022/08/15 04:37:22;;;;;;;6.50;5.97;;;27.00;59.30;;;;;;4476348;32;20262;-68
2022/08/15 04:39:50;;;;;;;7.53;6.82;;;26.90;58.70;;;;;;4462350;32;20074;-68
2022/08/15 04:42:19;;;;;;;9.43;7.57;;;26.90;58.30;;;;;;4476494;32;20113;-69
2022/08/15 04:44:49;;;;;;;8.80;7.90;;;26.90;58.00;;;;;;4476345;32;20088;-68
2022/08/15 04:47:16;;;;;;;10.25;8.15;;;26.90;57.80;;;;;;4476555;32;20093;-67
2022/08/15 04:49:43;;;;;;;12.50;8.02;;;26.80;57.60;;;;;;4476482;32;20091;-68
2022/08/15 04:52:17;;;;;;;8.70;7.63;;;26.80;57.50;;;;;;4476180;32;20077;-68
2022/08/15 04:54:45;;;;;;;9.10;8.20;;;26.80;57.40;;;;;;4476728;32;20170;-68
2022/08/15 04:57:12;;;;;;;9.30;8.35;;;26.70;58.40;;;;;;4476590;32;20073;-68
2022/08/15 04:59:39;;;;;;;9.25;8.10;;;26.70;57.40;;;;;;4462300;32;20161;-68
2022/08/15 05:02:08;;;;;;;9.45;8.27;;;26.70;57.40;;;;;;4476083;32;20506;-68
2022/08/15 05:04:34;;;;;;;9.25;8.38;;;26.60;57.30;;;;;;4449488;32;20187;-67
2022/08/15 05:07:00;;;;;;;10.93;8.35;;;26.60;57.30;;;;;;4475310;32;20503;-68
2022/08/15 05:09:26;;;;;;;9.88;8.88;;;26.60;57.30;;;;;;4476532;32;20089;-68
2022/08/15 05:11:52;;;;;;;9.48;8.48;;;26.60;57.30;;;;;;4476326;32;20065;-68
2022/08/15 05:14:18;;;;;;;10.38;8.48;;;26.60;57.40;;;;;;4476182;32;20495;-68
2022/08/15 05:16:44;;;;;;;11.10;7.75;;;26.60;57.40;;;;;;4476122;32;20418;-69
2022/08/15 05:19:10;;;;;;;9.10;8.18;;;26.50;57.50;;;;;;4476160;32;20081;-70
2022/08/15 05:21:38;;;;;;;8.75;7.90;;;26.50;57.70;;;;;;4475904;32;20074;-70
2022/08/15 05:24:05;;;;;;;9.35;8.52;;;26.50;57.80;;;;;;4476387;32;20182;-70
2022/08/15 05:26:33;;;;;;;9.90;8.90;;;26.50;57.90;;;;;;4476122;32;20429;-70
2022/08/15 05:28:59;;;;;;;9.75;8.52;;;26.50;58.00;;;;;;4476310;32;20490;-69
2022/08/15 05:31:25;;;;;;;10.13;8.30;;;26.50;58.10;;;;;;4461767;32;20073;-70
2022/08/15 05:33:51;;;;;;;8.43;7.63;;;26.50;58.20;;;;;;4476110;32;20073;-70
2022/08/15 05:36:18;;;;;;;9.65;8.00;;;26.40;58.20;;;;;;4475778;32;20415;-69
2022/08/15 05:38:55;;;;;;;10.50;8.55;;;26.40;58.30;;;;;;4476197;32;20551;-70
2022/08/15 05:41:39;;;;;;;9.25;8.25;;;26.50;58.60;;;;;;4476329;32;20085;-70
2022/08/15 05:44:08;;;;;;;;;;;26.40;58.70;;;;;;4476648;32;20155;-69
2022/08/15 05:46:39;;;;;;;9.75;8.75;;;26.40;58.90;;;;;;4475960;32;20052;-70
2022/08/15 05:49:18;;;;;;;9.20;8.30;;;26.40;58.90;;;;;;4476120;32;20212;-69
2022/08/15 05:51:49;;;;;;;9.43;8.45;;;26.40;59.10;;;;;;4475760;32;20158;-69
2022/08/15 05:54:44;;;;;;;10.65;8.02;;;26.40;59.20;;;;;;4476094;32;20081;-69
2022/08/15 05:57:29;;;;;;;9.65;8.65;;;26.40;59.30;;;;;;4476180;32;20473;-70
2022/08/15 06:00:02;;;;;;;8.80;8.00;;;26.40;59.50;;;;;;4476298;32;20080;-69
2022/08/15 06:02:42;;;;;;;9.55;8.57;;;26.40;59.60;;;;;;4475500;32;20069;-69
2022/08/15 06:05:22;;;;;;;9.88;8.45;;;26.40;59.70;;;;;;4476214;32;20135;-69
2022/08/15 06:07:49;;;;;;;9.25;8.32;;;26.40;59.80;;;;;;4475901;32;20084;-69
2022/08/15 06:10:37;;;;;;;12.75;8.75;;;26.40;59.90;;;;;;4476018;32;20086;-70
2022/08/15 06:13:13;;;;;;;8.93;8.13;;;26.40;60.00;;;;;;4476114;32;20261;-70
2022/08/15 06:15:50;;;;;;;10.60;9.52;;;26.30;60.10;;;;;;4475500;32;20220;-70
2022/08/15 06:18:18;;;;;;;9.43;8.50;;;26.40;60.30;;;;;;4477474;32;20081;-70
2022/08/15 06:21:07;;;;;;;9.68;8.65;;;26.30;60.30;;;;;;4478707;32;20197;-71
2022/08/15 06:23:54;;;;;;;10.50;9.13;;;26.30;60.40;;;;;;4478975;32;20159;-70
2022/08/15 06:26:25;;;;;;;9.57;8.70;;;26.30;60.40;;;;;;4478680;32;20187;-71
2022/08/15 06:29:26;;;;;;;10.98;9.88;;;26.30;60.50;;;;;;4478945;32;20203;-71
2022/08/15 06:32:01;;;;;;;10.45;8.70;;;26.30;60.60;;;;;;4466703;32;20109;-66
2022/08/15 06:35:02;;;;;;;10.35;9.35;;;26.30;60.70;;;;;;4478792;32;20095;-66
2022/08/15 06:37:34;;;;;;;10.52;9.07;;;26.30;60.80;;;;;;4478366;32;20095;-66
2022/08/15 06:40:38;;;;;;;16.00;9.10;;;26.20;60.90;;;;;;4478417;32;20108;-67
2022/08/15 06:43:08;;;;;;;10.63;9.52;;;26.20;60.90;;;;;;4399249;32;20067;-67
2022/08/15 06:45:37;;;;;;;13.57;9.32;;;26.30;61.00;;;;;;4399606;32;20176;-66
2022/08/15 06:48:15;;;;;;;13.88;9.32;;;26.20;61.00;;;;;;4439491;32;20553;-66
2022/08/15 06:50:50;;;;;;;10.98;9.82;;;26.20;60.90;;;;;;4464359;32;20077;-67
2022/08/15 06:53:28;;;;;;;10.80;9.48;;;26.20;61.00;;;;;;4478170;32;20133;-67
2022/08/15 06:56:28;;;;;;;10.82;9.82;;;26.20;61.30;;;;;;4478198;32;20608;-67
2022/08/15 06:59:05;;;;;;;11.13;9.80;;;26.20;61.70;;;;;;4478409;32;20507;-66
2022/08/15 07:01:36;;;;;;;10.60;9.38;;;26.20;61.50;;;;;;4478155;32;20069;-67
2022/08/15 07:04:09;;;;;;;11.77;9.90;;;26.20;61.60;;;;;;4477162;32;20446;-68
2022/08/15 07:06:45;;;;;;;14.88;9.65;;;26.20;61.50;;;;;;4478295;32;20096;-71
2022/08/15 07:09:43;;;;;;;13.93;9.95;;;26.30;61.60;;;;;;4478048;32;20086;-67
2022/08/15 07:12:18;;;;;;;11.60;9.65;;;26.20;61.70;;;;;;4478110;32;20506;-68
2022/08/15 07:15:04;;;;;;;15.73;10.48;;;26.20;61.90;;;;;;4477419;32;20089;-68
2022/08/15 07:18:02;;;;;;;14.35;10.35;;;26.20;62.00;;;;;;4477846;32;20503;-68
2022/08/15 07:20:28;;;;;;;12.13;10.27;;;26.30;62.10;;;;;;4478062;32;20410;-69
2022/08/15 07:22:54;;;;;;;12.27;10.18;;;26.20;62.00;;;;;;4463245;32;20088;-68
2022/08/15 07:25:28;;;;;;;11.43;9.55;;;26.30;62.10;;;;;;4477929;32;20066;-68
2022/08/15 07:28:09;;;;;;;17.00;10.82;;;26.30;62.10;;;;;;4478010;32;20069;-68
2022/08/15 07:31:01;;;;;;;12.93;10.70;;;26.30;62.30;;;;;;4477370;32;20073;-68
2022/08/15 07:33:31;;;;;;;14.48;10.63;;;26.40;62.40;;;;;;4468901;32;20645;-68
2022/08/15 07:36:20;;;;;;;12.55;11.23;;;26.40;62.20;;;;;;4477676;32;20109;-69
2022/08/15 07:38:47;;;;;;;13.85;10.25;;;26.40;62.30;;;;;;4467317;32;20069;-68
2022/08/15 07:41:22;;;;;;;12.88;10.50;;;26.50;62.10;;;;;;4477440;32;20218;-68
2022/08/15 07:43:49;;;;;;;13.18;9.98;;;26.50;61.80;;;;;;4477258;32;20128;-69
2022/08/15 07:46:34;;;;;;;12.30;9.57;;;26.50;61.60;;;;;;4477386;32;20077;-68
2022/08/15 07:49:07;;;;;;;11.75;10.02;;;26.50;61.40;;;;;;4477448;32;20084;-68
2022/08/15 07:52:16;;;;;;;10.80;9.05;;;26.50;61.40;;;;;;4477159;32;20111;-68
2022/08/15 07:54:42;;;;;;;20.83;8.90;;;26.50;61.20;;;;;;4477395;32;20069;-68
2022/08/15 07:57:30;;;;;;;14.38;9.68;;;26.50;61.20;;;;;;4477172;32;20372;-68
2022/08/15 08:00:13;;;;;;;16.92;8.98;;;26.60;61.30;;;;;;4477543;32;20529;-73
2022/08/15 08:02:58;;;;;;;12.48;9.13;;;26.80;61.20;;;;;;4477365;32;20089;-70
2022/08/15 08:05:31;;;;;;;12.98;8.90;;;26.80;60.50;;;;;;4462764;32;20077;-71
2022/08/15 08:08:00;;;;;;;17.73;8.50;;;27.00;60.30;;;;;;4477414;32;20533;-69
2022/08/15 08:10:36;;;;;;;12.73;8.10;;;27.10;59.80;;;;;;4477269;32;20271;-70
2022/08/15 08:13:27;;;;;;;14.15;8.20;;;27.10;59.50;;;;;;4477214;32;20178;-70
2022/08/15 08:16:19;;;;;;;9.38;8.18;;;27.10;59.40;;;;;;4476913;32;20065;-71
2022/08/15 08:19:00;;;;;;;11.45;8.27;;;27.10;59.40;;;;;;4476664;32;20084;-71
2022/08/15 08:21:47;;;;;;;13.48;8.80;;;27.00;59.30;;;;;;4477279;32;20198;-71
2022/08/15 08:24:27;;;;;;;13.40;9.30;;;26.90;59.10;;;;;;4476680;32;20077;-71
2022/08/15 08:27:07;;;;;;;13.73;9.13;;;26.80;59.10;;;;;;4477109;32;20061;-71
2022/08/15 08:29:47;;;;;;;11.80;9.20;;;26.80;59.10;;;;;;4477132;32;20054;-71
2022/08/15 08:32:27;;;;;;;11.35;9.10;;;26.80;59.20;;;;;;4476743;32;20070;-71
2022/08/15 08:34:59;;;;;;;11.32;8.20;;;26.70;59.30;;;;;;4477003;32;20398;-71
2022/08/15 08:37:37;;;;;;;9.63;8.48;;;26.70;59.60;;;;;;4476596;32;20088;-71
2022/08/15 08:43:57;;;;;;;11.70;8.23;;;26.70;59.60;;;;;;4476636;32;20108;-71
2022/08/15 08:46:45;;;;;;;11.32;8.82;;;26.70;59.80;;;;;;4476275;32;20077;-71
2022/08/15 08:49:51;;;;;;;9.77;7.95;;;26.70;60.00;;;;;;4476229;32;20385;-71
2022/08/15 08:52:32;;;;;;;11.73;8.30;;;26.80;59.70;;;;;;4454142;32;20125;-67
2022/08/15 08:55:06;;;;;;;8.95;7.38;;;26.70;59.40;;;;;;4476540;32;20095;-69
2022/08/15 08:57:43;;;;;;;8.18;7.38;;;26.80;59.00;;;;;;4476075;32;20082;-70
2022/08/15 09:00:23;;;;;;;9.15;7.20;;;26.70;58.20;;;;;;4476482;32;20101;-70
2022/08/15 09:03:04;;;;;;;8.00;6.70;;;26.70;58.20;;;;;;4476623;32;20098;-69
2022/08/15 09:05:42;;;;;;;8.10;6.10;;;26.70;57.80;;;;;;4476356;32;20069;-69
2022/08/15 09:08:18;;;;;;;11.75;6.45;;;26.80;57.80;;;;;;4476440;32;20093;-68
2022/08/15 09:10:48;;;;;;;8.65;6.40;;;26.70;57.30;;;;;;4476211;32;20088;-69
2022/08/15 09:13:34;;;;;;;8.57;5.90;;;26.80;57.40;;;;;;4476412;32;20087;-67
2022/08/15 09:16:15;;;;;;;10.93;5.90;;;26.80;57.20;;;;;;4476040;32;20084;-70
2022/08/15 09:19:01;;;;;;;8.95;7.03;;;26.80;57.30;;;;;;4476245;32;20085;-69
2022/08/15 09:21:27;;;;;;;7.70;6.40;;;26.80;57.30;;;;;;4476241;32;20113;-72
2022/08/15 09:23:54;;;;;;;7.88;6.05;;;26.90;57.50;;;;;;4475811;32;20406;-70
2022/08/15 09:26:27;;;;;;;9.45;6.35;;;26.90;57.60;;;;;;4476294;32;20202;-71
2022/08/15 09:29:30;;;;;;;7.97;6.72;;;27.00;57.70;;;;;;4476216;32;20066;-69
2022/08/15 09:32:32;;;;;;;9.32;6.80;;;27.00;57.50;;;;;;4476046;32;20131;-70
2022/08/15 09:35:04;;;;;;;15.07;7.85;;;27.00;57.60;;;;;;4461854;32;20100;-70
2022/08/15 09:37:53;;;;;;;7.40;6.70;;;27.00;57.30;;;;;;4461893;32;20097;-70
2022/08/15 09:40:45;;;;;;;8.95;6.18;;;27.10;57.10;;;;;;4464258;32;20214;-70
2022/08/15 09:43:25;;;;;;;8.52;6.60;;;27.10;57.30;;;;;;4475671;32;20084;-70
2022/08/15 09:46:09;;;;;;;11.52;6.53;;;27.10;57.20;;;;;;4475938;32;20082;-70
2022/08/15 09:49:02;;;;;;;8.38;5.50;;;27.20;56.90;;;;;;4476356;32;20417;-70
2022/08/15 09:51:58;;;;;;;10.43;5.47;;;27.20;56.10;;;;;;4475779;32;20583;-70
2022/08/15 09:54:28;;;;;;;7.38;5.57;;;27.20;55.40;;;;;;4478883;32;20095;-70
2022/08/15 09:57:19;;;;;;;15.38;5.28;;;27.30;55.20;;;;;;4479276;32;20255;-70
2022/08/15 09:59:51;;;;;;;9.70;5.32;;;27.30;54.00;;;;;;4464892;32;20077;-70
2022/08/15 10:02:20;;;;;;;6.13;5.10;;;27.40;54.00;;;;;;4479072;32;20199;-70
2022/08/15 10:04:49;;;;;;;4.82;4.22;;;27.40;53.70;;;;;;4478610;32;20104;-70
2022/08/15 10:07:15;;;;;;;6.32;4.50;;;27.40;53.30;;;;;;4478887;32;20092;-70
2022/08/15 10:09:44;;;;;;;6.20;4.53;;;27.50;53.30;;;;;;4478800;32;20065;-70
2022/08/15 10:12:11;;;;;;;5.95;4.47;;;27.60;53.20;;;;;;4478701;32;20147;-67
2022/08/15 10:14:42;;;;;;;5.57;4.78;;;27.60;52.90;;;;;;4478726;32;20203;-70
2022/08/15 10:17:34;;;;;;;5.95;4.20;;;27.70;52.80;;;;;;4478520;32;20089;-70
2022/08/15 10:20:15;;;;;;;5.13;4.55;;;27.80;52.70;;;;;;4478678;32;20507;-71
2022/08/15 10:22:48;;;;;;;4.95;4.05;;;27.80;52.50;;;;;;4478837;32;20092;-70
2022/08/15 10:25:17;;;;;;;6.93;4.60;;;27.70;52.60;;;;;;4478588;32;20107;-70
2022/08/15 10:28:10;;;;;;;5.70;5.10;;;27.80;52.70;;;;;;4478568;32;20088;-70
2022/08/15 10:30:38;;;;;;;7.25;5.45;;;27.70;52.10;;;;;;4478629;32;20522;-77
2022/08/15 10:33:32;;;;;;;6.93;5.07;;;27.70;52.50;;;;;;4478532;32;20096;-70
2022/08/15 10:36:13;;;;;;;9.43;5.30;;;27.70;51.90;;;;;;4478428;32;20167;-70
2022/08/15 10:38:43;;;;;;;6.32;5.35;;;27.70;52.20;;;;;;4478511;32;20490;-70
2022/08/15 10:41:45;;;;;;;5.65;5.05;;;27.70;52.30;;;;;;4477991;32;20077;-70
2022/08/15 10:44:42;;;;;;;6.93;5.25;;;27.70;52.00;;;;;;4467391;32;20092;-70
2022/08/15 10:47:32;;;;;;;6.82;5.00;;;27.80;51.90;;;;;;4478560;32;20564;-70
2022/08/15 10:50:05;;;;;;;6.93;4.93;;;27.80;51.80;;;;;;4478616;32;20212;-69
2022/08/15 10:52:50;;;;;;;;;;;27.90;51.40;;;;;;4479285;32;20081;-69
2022/08/15 10:55:32;;;;;;;6.60;4.90;;;27.90;51.50;;;;;;4463816;32;20107;-70
2022/08/15 10:58:09;;;;;;;6.43;5.47;;;28.00;51.40;;;;;;4477896;32;20077;-70
2022/08/15 11:00:43;;;;;;;9.00;4.95;;;28.00;51.60;;;;;;4478398;32;20085;-70
2022/08/15 11:03:27;;;;;;;6.03;5.38;;;28.00;51.60;;;;;;4464124;32;20077;-69
2022/08/15 11:05:59;;;;;;;5.70;5.20;;;28.00;51.70;;;;;;4478212;32;20591;-70
2022/08/15 11:08:25;;;;;;;8.18;5.40;;;28.00;51.50;;;;;;4463738;32;20349;-70
2022/08/15 11:10:52;;;;;;;6.30;5.70;;;28.00;51.40;;;;;;4477636;32;20099;-70
2022/08/15 11:13:23;;;;;;;8.52;5.72;;;28.00;51.50;;;;;;4477932;32;20096;-70
2022/08/15 11:15:55;;;;;;;6.38;5.78;;;28.00;51.50;;;;;;4478002;32;20506;-69
2022/08/15 11:18:29;;;;;;;13.00;5.70;;;28.00;51.50;;;;;;4477636;32;20211;-70
2022/08/15 11:21:15;;;;;;;5.57;5.05;;;28.00;51.60;;;;;;4477933;32;20057;-70
2022/08/15 11:23:42;;;;;;;6.28;5.68;;;28.00;51.60;;;;;;4477803;32;20085;-71
2022/08/15 11:26:10;;;;;;;8.90;5.90;;;28.00;51.80;;;;;;4477475;32;20199;-70
2022/08/15 11:28:39;;;;;;;6.80;5.57;;;28.00;52.00;;;;;;4463761;32;20211;-69
2022/08/15 11:31:18;;;;;;;6.50;5.65;;;28.00;52.20;;;;;;4477694;32;20095;-74
2022/08/15 11:33:47;;;;;;;7.90;5.93;;;28.00;52.30;;;;;;4477438;32;20073;-70
2022/08/15 11:36:23;;;;;;;8.32;5.88;;;28.00;52.20;;;;;;4477847;32;20080;-71
2022/08/15 11:38:56;;;;;;;7.35;6.20;;;28.00;51.90;;;;;;4477579;32;20073;-70
2022/08/15 11:41:26;;;;;;;;;;;28.00;51.90;;;;;;4463866;32;20088;-69
2022/08/15 11:43:54;;;;;;;9.32;6.28;;;28.10;52.30;;;;;;4477595;32;20501;-70
2022/08/15 11:46:23;;;;;;;6.32;5.72;;;28.10;52.00;;;;;;4477593;32;20100;-70
2022/08/15 11:48:55;;;;;;;7.95;6.30;;;28.20;51.70;;;;;;4477391;32;20096;-70
2022/08/15 11:51:26;;;;;;;10.57;6.45;;;28.20;51.60;;;;;;4450307;32;20081;-70
2022/08/15 11:54:10;;;;;;;6.85;5.90;;;28.20;51.40;;;;;;4477420;32;20216;-71
2022/08/15 11:57:04;;;;;;;7.15;6.40;;;28.20;51.40;;;;;;4477666;32;20413;-73
2022/08/15 11:59:39;;;;;;;11.20;7.20;;;28.20;51.60;;;;;;4475133;32;20081;-69
2022/08/15 12:02:14;;;;;;;8.45;7.30;;;28.20;51.70;;;;;;4477231;32;20166;-69
2022/08/15 12:04:43;;;;;;;8.73;7.53;;;28.10;51.80;;;;;;4463049;32;20494;-69
2022/08/15 12:07:13;;;;;;;14.20;7.90;;;28.10;52.10;;;;;;4477147;32;20100;-69
2022/08/15 12:09:48;;;;;;;9.43;8.52;;;28.10;52.10;;;;;;4477189;32;20080;-69
2022/08/15 12:12:42;;;;;;;10.60;7.93;;;28.10;52.40;;;;;;4477090;32;20080;-68
2022/08/15 12:15:14;;;;;;;11.07;9.07;;;28.10;52.60;;;;;;4476929;32;20183;-68
2022/08/15 12:17:43;;;;;;;10.30;8.88;;;28.10;52.80;;;;;;4476950;32;20513;-70
2022/08/15 12:20:09;;;;;;;11.93;8.32;;;28.00;52.90;;;;;;4476866;32;20082;-69
2022/08/15 12:22:42;;;;;;;16.92;9.45;;;28.00;53.10;;;;;;4477068;32;20065;-69
2022/08/15 12:25:09;;;;;;;11.90;9.65;;;28.00;53.50;;;;;;4476946;32;20133;-69
2022/08/15 12:27:35;;;;;;;11.57;9.18;;;28.00;53.50;;;;;;4477078;32;20089;-69
2022/08/15 12:30:05;;;;;;;11.25;9.35;;;28.00;53.70;;;;;;4462568;32;20199;-69
2022/08/15 12:32:32;;;;;;;9.05;8.07;;;28.00;53.90;;;;;;4476705;32;20592;-69
2022/08/15 12:35:02;;;;;;;10.95;9.25;;;28.00;54.10;;;;;;4476390;32;20081;-70
2022/08/15 12:37:28;;;;;;;13.60;9.43;;;28.00;54.40;;;;;;4476308;32;20096;-69
2022/08/15 12:40:00;;;;;;;9.95;8.95;;;28.00;54.40;;;;;;4462600;32;20105;-70
2022/08/15 12:42:30;;;;;;;10.35;8.93;;;28.00;54.80;;;;;;4476562;32;20061;-69
2022/08/15 12:45:09;;;;;;;11.32;8.68;;;28.00;54.90;;;;;;4476223;32;20182;-70
2022/08/15 12:47:35;;;;;;;11.13;8.68;;;28.00;55.00;;;;;;4476664;32;20175;-70
2022/08/15 12:50:04;;;;;;;10.35;9.35;;;28.00;54.90;;;;;;4462449;32;20511;-72
2022/08/15 12:52:30;;;;;;;9.70;8.80;;;27.90;54.80;;;;;;4462086;32;20535;-69
2022/08/15 12:54:57;;;;;;;9.50;8.57;;;27.90;54.70;;;;;;4476390;32;20139;-70
2022/08/15 12:57:24;;;;;;;10.38;9.13;;;27.90;54.80;;;;;;4476402;32;20201;-72
2022/08/15 12:59:50;;;;;;;11.93;9.38;;;27.90;54.80;;;;;;4476562;32;20073;-70
2022/08/15 13:02:17;;;;;;;10.07;9.07;;;27.90;54.80;;;;;;4462346;32;20498;-70
2022/08/15 13:04:55;;;;;;;9.45;8.48;;;27.90;55.00;;;;;;4476823;32;20108;-71
2022/08/15 13:07:24;;;;;;;11.57;9.40;;;27.90;55.00;;;;;;4476429;32;20103;-73
2022/08/15 13:09:50;;;;;;;8.82;7.93;;;27.90;55.10;;;;;;4476279;32;20078;-75
2022/08/15 13:12:17;;;;;;;9.20;8.40;;;27.80;55.00;;;;;;4476182;32;20499;-73
2022/08/15 13:14:43;;;;;;;12.27;8.70;;;27.90;55.00;;;;;;4476245;32;20071;-70
2022/08/15 13:17:12;;;;;;;11.77;7.63;;;27.80;55.00;;;;;;4475876;32;20093;-70
2022/08/15 13:25:15;;;;;;;7.90;7.07;;;27.80;55.00;;;;;;4476261;32;20073;-70
2022/08/15 13:27:44;;;;;;;9.00;7.18;;;27.80;55.00;;;;;;4475452;32;20223;-70